createdAt,value
2023-03-01T04:48:02.121Z,16.40
2023-03-01T04:51:06.945Z,16.83
2023-03-01T04:54:09.757Z,19.70
2023-03-01T04:57:12.822Z,18.25
2023-03-01T05:00:22.949Z,18.00
2023-03-01T05:03:25.942Z,16.27
2023-03-01T05:06:28.980Z,14.95
2023-03-01T05:09:31.914Z,18.20
2023-03-01T05:12:34.700Z,13.63
2023-03-01T05:15:37.557Z,17.93
2023-03-01T05:18:41.407Z,15.48
2023-03-01T05:22:02.894Z,13.45
2023-03-01T05:25:05.966Z,14.45
2023-03-01T05:28:12.804Z,11.93
2023-03-01T05:31:15.163Z,16.77
2023-03-01T05:34:17.844Z,16.90
2023-03-01T05:37:20.475Z,15.55
2023-03-01T05:40:25.136Z,19.10
2023-03-01T05:43:35.593Z,10.90
2023-03-01T05:46:38.201Z,16.62
2023-03-01T05:49:40.999Z,17.50
2023-03-01T05:52:44.096Z,15.07
2023-03-01T05:55:48.362Z,17.35
2023-03-01T05:58:51.125Z,14.30
2023-03-01T06:01:54.543Z,14.02
2023-03-01T06:04:57.283Z,17.50
2023-03-01T06:08:01.378Z,14.43
2023-03-01T06:11:04.929Z,16.12
2023-03-01T06:14:09.050Z,13.95
2023-03-01T06:17:11.669Z,18.45
2023-03-01T06:20:15.650Z,13.50
2023-03-01T06:23:18.344Z,17.23
2023-03-01T06:26:21.106Z,20.50
2023-03-01T06:29:23.795Z,17.83
2023-03-01T06:32:26.211Z,18.35
2023-03-01T06:35:32.210Z,22.10
2023-03-01T06:38:35.119Z,19.23
2023-03-01T06:41:40.529Z,16.65
2023-03-01T06:44:43.122Z,16.23
2023-03-01T06:47:45.899Z,18.05
2023-03-01T06:50:48.899Z,20.85
2023-03-01T06:53:51.728Z,13.67
2023-03-01T06:56:54.133Z,15.15
2023-03-01T06:59:58.236Z,16.80
2023-03-01T07:03:03.398Z,20.98
2023-03-01T07:06:06.878Z,13.15
2023-03-01T07:09:09.423Z,19.42
2023-03-01T07:12:12.367Z,16.63
2023-03-01T07:15:16.104Z,18.67
2023-03-01T07:18:18.812Z,14.57
2023-03-01T07:21:22.139Z,20.12
2023-03-01T07:24:24.861Z,14.70
2023-03-01T07:27:28.006Z,18.23
2023-03-01T07:30:33.271Z,14.07
2023-03-01T07:33:35.787Z,16.50
2023-03-01T07:36:40.452Z,19.40
2023-03-01T07:39:43.297Z,17.83
2023-03-01T07:42:46.418Z,17.92
2023-03-01T07:45:48.829Z,19.83
2023-03-01T07:48:51.580Z,16.27
2023-03-01T07:51:54.284Z,21.67
2023-03-01T07:54:57.853Z,15.45
2023-03-01T07:58:01.424Z,19.90
2023-03-01T08:01:06.500Z,18.27
2023-03-01T08:04:11.402Z,15.55
2023-03-01T08:07:13.825Z,18.23
2023-03-01T08:10:17.563Z,18.77
2023-03-01T08:13:23.396Z,17.77
2023-03-01T08:16:26.122Z,18.87
2023-03-01T08:19:29.127Z,16.77
2023-03-01T08:22:31.818Z,19.37
2023-03-01T08:25:34.233Z,16.05
2023-03-01T08:28:37.229Z,15.60
2023-03-01T08:31:41.333Z,16.07
2023-03-01T08:34:47.766Z,20.83
2023-03-01T08:37:50.276Z,16.05
2023-03-01T08:40:54.860Z,17.77
2023-03-01T08:43:59.995Z,18.05
2023-03-01T08:47:03.294Z,15.25
2023-03-01T08:50:06.289Z,17.50
2023-03-01T08:53:10.638Z,16.27
2023-03-01T08:56:15.469Z,15.95
2023-03-01T08:59:19.199Z,19.85
2023-03-01T09:02:21.824Z,19.40
2023-03-01T09:05:24.642Z,16.75
2023-03-01T09:08:27.242Z,15.98
2023-03-01T09:11:30.494Z,18.17
2023-03-01T09:14:33.122Z,28.73
2023-03-01T09:17:35.956Z,18.20
2023-03-01T09:20:39.089Z,15.00
2023-03-01T09:23:45.161Z,18.02
2023-03-01T09:26:50.659Z,19.25
2023-03-01T09:29:54.120Z,17.75
2023-03-01T09:32:59.588Z,20.50
2023-03-01T09:36:05.423Z,19.48
2023-03-01T09:39:08.677Z,19.67
2023-03-01T09:42:13.219Z,19.10
2023-03-01T09:45:30.244Z,18.80
2023-03-01T09:48:42.435Z,16.17
2023-03-01T09:51:55.704Z,17.25
2023-03-01T09:55:00.670Z,15.63
2023-03-01T09:58:47.681Z,17.30
2023-03-01T10:02:22.391Z,19.58
2023-03-01T10:05:35.072Z,17.25
2023-03-01T10:08:42.589Z,16.77
2023-03-01T10:11:51.306Z,20.60
2023-03-01T10:15:06.514Z,19.75
2023-03-01T10:18:22.284Z,17.02
2023-03-01T10:21:24.883Z,27.30
2023-03-01T10:24:36.312Z,21.07
2023-03-01T10:27:48.608Z,17.05
2023-03-01T10:30:52.656Z,18.05
2023-03-01T10:33:57.149Z,21.70
2023-03-01T10:37:12.938Z,17.05
2023-03-01T10:40:15.528Z,21.20
2023-03-01T10:46:37.279Z,17.87
2023-03-01T10:49:40.012Z,22.50
2023-03-01T10:52:42.734Z,19.23
2023-03-01T10:55:47.810Z,15.88
2023-03-01T10:59:22.862Z,22.05
2023-03-01T11:02:34.950Z,20.48
2023-03-01T11:05:53.463Z,14.15
2023-03-01T11:08:56.675Z,18.00
2023-03-01T11:12:01.804Z,17.42
2023-03-01T11:15:04.956Z,16.58
2023-03-01T11:18:23.644Z,11.35
2023-03-01T11:21:32.809Z,20.55
2023-03-01T11:24:38.851Z,15.52
2023-03-01T11:27:44.612Z,15.77
2023-03-01T11:31:07.577Z,17.52
2023-03-01T11:34:24.853Z,15.63
2023-03-01T11:37:52.909Z,17.27
2023-03-01T11:41:06.636Z,14.63
2023-03-01T11:44:18.849Z,16.37
2023-03-01T11:47:40.605Z,13.88
2023-03-01T11:50:49.234Z,13.98
2023-03-01T11:54:08.106Z,16.08
2023-03-01T11:57:49.229Z,14.98
2023-03-01T12:01:09.438Z,13.77
2023-03-01T12:04:24.195Z,14.07
2023-03-01T12:07:47.550Z,19.90
2023-03-01T12:11:04.598Z,13.40
2023-03-01T12:14:16.197Z,12.13
2023-03-01T12:17:39.525Z,12.37
2023-03-01T12:21:37.709Z,12.65
2023-03-01T12:25:00.234Z,14.77
2023-03-01T12:28:10.315Z,13.65
2023-03-01T12:31:37.792Z,15.50
2023-03-01T12:35:10.958Z,11.18
2023-03-01T12:38:19.316Z,17.23
2023-03-01T12:41:34.988Z,14.10
2023-03-01T12:45:03.973Z,16.52
2023-03-01T12:48:36.691Z,17.20
2023-03-01T12:51:41.501Z,16.05
2023-03-01T12:54:46.557Z,14.50
2023-03-01T12:58:21.990Z,14.48
2023-03-01T13:01:33.573Z,17.58
2023-03-01T13:05:08.005Z,15.45
2023-03-01T13:08:18.161Z,14.73
2023-03-01T13:11:23.898Z,15.85
2023-03-01T13:14:26.327Z,17.80
2023-03-01T13:17:41.465Z,11.83
2023-03-01T13:20:44.429Z,11.25
2023-03-01T13:23:49.121Z,13.48
2023-03-01T13:27:06.948Z,14.30
2023-03-01T13:30:34.974Z,11.15
2023-03-01T13:33:51.948Z,15.32
2023-03-01T13:37:09.814Z,13.93
2023-03-01T13:40:19.555Z,11.35
2023-03-01T13:43:32.058Z,11.67
2023-03-01T13:46:35.215Z,12.05
2023-03-01T13:49:50.990Z,14.13
2023-03-01T13:52:59.659Z,11.60
2023-03-01T13:56:09.014Z,20.02
2023-03-01T13:59:17.151Z,12.73
2023-03-01T14:02:19.846Z,10.52
2023-03-01T14:05:22.686Z,10.63
2023-03-01T14:08:28.062Z,12.52
2023-03-01T14:11:39.969Z,11.85
2023-03-01T14:14:54.887Z,9.98
2023-03-01T14:18:27.136Z,9.23
2023-03-01T14:21:31.117Z,11.98
2023-03-01T14:24:38.557Z,10.30
2023-03-01T14:27:43.172Z,8.68
2023-03-01T14:30:52.174Z,9.50
2023-03-01T14:33:58.134Z,10.38
2023-03-01T14:37:19.826Z,11.00
2023-03-01T14:40:36.271Z,7.55
2023-03-01T14:43:45.153Z,8.20
2023-03-01T14:46:47.835Z,7.37
2023-03-01T14:49:59.431Z,7.93
2023-03-01T14:53:09.047Z,9.35
2023-03-01T14:56:18.426Z,12.52
2023-03-01T14:59:24.948Z,9.60
2023-03-01T15:02:30.092Z,10.80
2023-03-01T15:05:34.540Z,9.10
2023-03-01T15:08:42.044Z,11.40
2023-03-01T15:11:45.080Z,10.68
2023-03-01T15:15:02.686Z,8.25
2023-03-01T15:18:16.442Z,13.52
2023-03-01T15:21:23.964Z,9.18
2023-03-01T15:24:28.574Z,12.02
2023-03-01T15:27:31.291Z,8.75
2023-03-01T15:30:38.167Z,9.35
2023-03-01T15:33:47.963Z,9.50
2023-03-01T15:36:53.299Z,10.70
2023-03-01T15:39:57.905Z,12.15
2023-03-01T15:43:02.297Z,8.60
2023-03-01T15:46:05.131Z,9.13
2023-03-01T15:49:46.485Z,7.50
2023-03-01T15:52:58.946Z,9.77
2023-03-01T15:56:01.256Z,11.40
2023-03-01T15:59:05.536Z,10.43
2023-03-01T16:02:13.592Z,9.90
2023-03-01T16:05:26.800Z,13.07
2023-03-01T16:08:30.099Z,12.50
2023-03-01T16:14:35.798Z,8.68
2023-03-01T16:17:38.387Z,8.80
2023-03-01T16:20:42.124Z,6.70
2023-03-01T16:23:45.282Z,7.62
2023-03-01T16:26:47.628Z,16.10
2023-03-01T16:29:50.564Z,10.82
2023-03-01T16:32:53.119Z,11.63
2023-03-01T16:35:56.059Z,12.13
2023-03-01T16:38:59.947Z,10.30
2023-03-01T16:42:02.562Z,9.30
2023-03-01T16:45:09.163Z,14.15
2023-03-01T16:48:16.786Z,9.35
